Time;durP1;ratioP1;P1;durP2;ratioP2;P2;SDS_P1;SDS_P2;PMS_P1;PMS_P2;Temp;Humidity;BMP_temperature;BMP_pressure;BME280_temperature;BME280_humidity;BME280_pressure;Samples;Min_cycle;Max_cycle;Signal;HPM_P1;HPM_P2
2022/09/23 00:02:07;;;;;;;7.88;5.47;;;;;;;;;;4954782;28;20039;-76
2022/09/23 00:04:33;;;;;;;6.80;5.35;;;;;;;;;;4954837;28;20079;-75
2022/09/23 00:06:59;;;;;;;8.15;5.00;;;;;;;;;;4933939;28;20035;-75
2022/09/23 00:09:26;;;;;;;8.38;4.88;;;;;;;;;;4954454;28;20019;-76
2022/09/23 00:11:52;;;;;;;7.65;5.25;;;;;;;;;;4953421;28;20027;-76
2022/09/23 00:14:18;;;;;;;7.22;5.20;;;;;;;;;;4952843;28;20034;-76
2022/09/23 00:16:44;;;;;;;6.32;4.80;;;;;;;;;;4953220;28;20054;-76
2022/09/23 00:19:10;;;;;;;7.68;4.95;;;;;;;;;;4954179;28;20031;-76
2022/09/23 00:21:36;;;;;;;11.68;5.15;;;;;;;;;;4953943;28;20028;-76
2022/09/23 00:24:06;;;;;;;10.05;5.00;;;;;;;;;;4955431;28;20095;-76
2022/09/23 00:26:33;;;;;;;7.53;5.40;;;;;;;;;;4943652;29;20526;-76
2022/09/23 00:28:59;;;;;;;6.43;5.00;;;;;;;;;;4964302;28;20511;-76
2022/09/23 00:31:26;;;;;;;6.88;5.18;;;;;;;;;;4960634;29;20043;-76
2022/09/23 00:33:59;;;;;;;6.28;4.78;;;;;;;;;;4947698;29;20055;-76
2022/09/23 00:36:26;;;;;;;5.75;4.72;;;;;;;;;;4947684;29;20040;-76
2022/09/23 00:38:54;;;;;;;6.68;5.22;;;;;;;;;;4944422;29;20412;-76
2022/09/23 00:41:22;;;;;;;6.18;5.05;;;;;;;;;;4949569;29;20023;-76
2022/09/23 00:43:51;;;;;;;7.72;5.22;;;;;;;;;;4949427;29;20035;-76
2022/09/23 00:46:19;;;;;;;7.78;4.72;;;;;;;;;;4947325;29;20027;-76
2022/09/23 00:48:49;;;;;;;6.15;4.70;;;;;;;;;;4962834;28;20039;-76
2022/09/23 00:51:18;;;;;;;5.85;4.55;;;;;;;;;;4948098;29;20038;-76
2022/09/23 00:53:49;;;;;;;6.57;4.53;;;;;;;;;;4948065;29;20134;-76
2022/09/23 00:56:18;;;;;;;4.85;4.18;;;;;;;;;;4966272;28;20403;-77
2022/09/23 00:58:48;;;;;;;5.72;4.30;;;;;;;;;;4940380;29;20119;-76
2022/09/23 01:01:14;;;;;;;5.15;4.22;;;;;;;;;;4951108;28;20067;-76
2022/09/23 01:03:45;;;;;;;5.40;3.92;;;;;;;;;;4954127;28;20047;-76
2022/09/23 01:06:12;;;;;;;5.60;4.53;;;;;;;;;;4932286;28;20497;-75
2022/09/23 01:08:38;;;;;;;8.07;3.92;;;;;;;;;;4953066;28;20374;-76
2022/09/23 01:11:07;;;;;;;5.00;4.15;;;;;;;;;;4954533;29;20066;-76
2022/09/23 01:13:36;;;;;;;5.65;4.15;;;;;;;;;;4952657;28;20031;-76
2022/09/23 01:16:10;;;;;;;5.88;4.22;;;;;;;;;;4953821;28;20051;-77
2022/09/23 01:18:48;;;;;;;8.40;4.70;;;;;;;;;;4952655;28;20035;-76
2022/09/23 01:21:30;;;;;;;6.15;4.70;;;;;;;;;;4954778;28;20022;-75
2022/09/23 01:23:56;;;;;;;6.90;4.35;;;;;;;;;;4953633;28;20027;-77
2022/09/23 01:26:42;;;;;;;5.63;4.28;;;;;;;;;;4948151;28;20034;-76
2022/09/23 01:29:08;;;;;;;6.18;4.35;;;;;;;;;;4943657;29;20063;-77
2022/09/23 01:31:43;;;;;;;5.32;4.35;;;;;;;;;;4943600;29;20063;-76
2022/09/23 01:34:23;;;;;;;5.32;4.00;;;;;;;;;;4944755;29;20105;-76
2022/09/23 01:37:10;;;;;;;5.15;4.38;;;;;;;;;;4943522;28;20034;-75
2022/09/23 01:39:38;;;;;;;6.32;4.65;;;;;;;;;;4961394;28;20042;-77
2022/09/23 01:42:10;;;;;;;4.78;4.00;;;;;;;;;;4958542;28;20053;-76
2022/09/23 01:44:47;;;;;;;5.25;3.95;;;;;;;;;;4943818;29;20035;-77
2022/09/23 01:47:16;;;;;;;8.45;3.90;;;;;;;;;;4953298;28;20110;-77
2022/09/23 01:50:02;;;;;;;5.20;4.18;;;;;;;;;;4956452;28;20078;-76
2022/09/23 01:52:32;;;;;;;5.25;3.95;;;;;;;;;;4939043;28;20468;-76
2022/09/23 01:55:08;;;;;;;4.70;3.85;;;;;;;;;;4961754;28;20036;-76
2022/09/23 01:57:54;;;;;;;5.40;4.22;;;;;;;;;;4959102;28;20035;-76
2022/09/23 02:00:23;;;;;;;7.90;3.65;;;;;;;;;;4953556;28;20031;-76
2022/09/23 02:02:56;;;;;;;4.65;3.75;;;;;;;;;;4941230;29;20127;-76
2022/09/23 02:05:48;;;;;;;5.00;4.05;;;;;;;;;;4963731;28;20030;-76
2022/09/23 02:08:27;;;;;;;4.82;3.53;;;;;;;;;;4938494;29;20074;-76
2022/09/23 02:10:57;;;;;;;4.40;3.80;;;;;;;;;;4962350;28;20055;-76
2022/09/23 02:13:43;;;;;;;4.20;3.53;;;;;;;;;;4943972;29;20387;-77
2022/09/23 02:16:38;;;;;;;7.70;4.05;;;;;;;;;;4947777;29;20122;-76
2022/09/23 02:19:23;;;;;;;6.15;4.50;;;;;;;;;;4965270;28;20507;-79
2022/09/23 02:21:54;;;;;;;8.15;4.30;;;;;;;;;;4942311;28;20392;-76
2022/09/23 02:24:31;;;;;;;6.10;4.65;;;;;;;;;;4946400;29;20035;-77
2022/09/23 02:27:14;;;;;;;5.75;4.40;;;;;;;;;;4946396;29;20051;-75
2022/09/23 02:29:53;;;;;;;6.00;3.72;;;;;;;;;;4941069;29;20035;-76
2022/09/23 02:32:30;;;;;;;4.82;3.90;;;;;;;;;;4963344;28;20042;-77
2022/09/23 02:35:10;;;;;;;6.82;3.58;;;;;;;;;;4944993;29;20023;-75
2022/09/23 02:37:44;;;;;;;4.57;3.75;;;;;;;;;;4951878;28;20040;-76
2022/09/23 02:40:16;;;;;;;5.00;3.72;;;;;;;;;;4948285;28;20023;-76
2022/09/23 02:43:01;;;;;;;7.07;4.18;;;;;;;;;;4951006;28;20032;-76
2022/09/23 02:45:27;;;;;;;5.97;4.32;;;;;;;;;;4950216;28;20041;-74
2022/09/23 02:48:02;;;;;;;8.90;3.97;;;;;;;;;;4951870;28;20057;-76
2022/09/23 02:50:29;;;;;;;4.93;4.00;;;;;;;;;;4935874;29;20078;-77
2022/09/23 02:52:55;;;;;;;5.00;3.88;;;;;;;;;;4947152;28;20066;-76
2022/09/23 02:55:23;;;;;;;6.68;4.40;;;;;;;;;;4951638;28;20058;-76
2022/09/23 02:57:51;;;;;;;7.43;4.40;;;;;;;;;;4949592;28;20035;-77
2022/09/23 03:00:17;;;;;;;5.68;4.20;;;;;;;;;;4953588;28;20015;-75
2022/09/23 03:02:50;;;;;;;5.03;4.13;;;;;;;;;;4960461;28;20061;-76
2022/09/23 03:05:25;;;;;;;7.90;5.15;;;;;;;;;;4964111;29;20030;-76
2022/09/23 03:07:51;;;;;;;6.32;4.82;;;;;;;;;;4939605;29;20039;-77
2022/09/23 03:10:25;;;;;;;6.28;4.65;;;;;;;;;;4944566;29;20027;-76
2022/09/23 03:12:51;;;;;;;;;;;;;;;;;;4965845;28;20166;-77
2022/09/23 03:15:25;;;;;;;8.52;5.45;;;;;;;;;;4944647;29;19910;-76
2022/09/23 03:17:57;;;;;;;7.30;4.65;;;;;;;;;;4942746;29;20079;-76
2022/09/23 03:20:49;;;;;;;6.40;4.88;;;;;;;;;;4946526;29;20027;-76
2022/09/23 03:23:18;;;;;;;6.05;4.70;;;;;;;;;;4845705;29;20106;-77
2022/09/23 03:25:48;;;;;;;7.70;4.97;;;;;;;;;;4850732;29;20480;-76
2022/09/23 03:28:19;;;;;;;7.20;5.07;;;;;;;;;;4842777;29;20086;-75
2022/09/23 03:30:46;;;;;;;7.57;5.22;;;;;;;;;;4845435;29;20072;-76
2022/09/23 03:33:15;;;;;;;8.65;5.22;;;;;;;;;;4844782;29;20133;-76
2022/09/23 03:38:41;;;;;;;8.43;4.63;;;;;;;;;;4852710;29;20586;-76
2022/09/23 03:41:10;;;;;;;7.90;5.88;;;;;;;;;;4838085;29;20038;-76
2022/09/23 03:43:38;;;;;;;19.13;11.93;;;;;;;;;;4838898;29;20539;-77
2022/09/23 03:46:06;;;;;;;45.80;28.85;;;;;;;;;;4833302;29;20030;-76
2022/09/23 03:48:33;;;;;;;61.13;38.65;;;;;;;;;;4844988;29;20415;-76
2022/09/23 03:51:10;;;;;;;63.53;40.72;;;;;;;;;;4837843;29;20030;-75
2022/09/23 03:53:38;;;;;;;48.13;31.70;;;;;;;;;;4851689;29;20038;-76
2022/09/23 03:56:10;;;;;;;40.25;27.10;;;;;;;;;;4848737;29;20034;-77
2022/09/23 03:58:36;;;;;;;32.35;22.15;;;;;;;;;;4846502;29;20038;-76
2022/09/23 04:01:04;;;;;;;23.20;15.13;;;;;;;;;;4925794;28;20051;-76
2022/09/23 04:03:32;;;;;;;15.90;9.80;;;;;;;;;;4926834;29;20108;-77
2022/09/23 04:06:00;;;;;;;11.55;8.48;;;;;;;;;;4943018;29;20350;-76
2022/09/23 04:08:28;;;;;;;12.07;9.07;;;;;;;;;;4937563;29;20044;-77
2022/09/23 04:11:04;;;;;;;12.20;8.32;;;;;;;;;;4939222;29;20051;-77
2022/09/23 04:13:32;;;;;;;13.07;9.30;;;;;;;;;;4935926;29;20023;-76
2022/09/23 04:16:00;;;;;;;14.52;9.80;;;;;;;;;;4944653;29;20020;-76
2022/09/23 04:18:27;;;;;;;14.05;9.77;;;;;;;;;;4937227;29;20020;-75
2022/09/23 04:21:00;;;;;;;11.57;8.18;;;;;;;;;;4935993;29;20489;-76
2022/09/23 04:23:26;;;;;;;12.98;7.70;;;;;;;;;;4933026;29;20035;-75
2022/09/23 04:25:52;;;;;;;13.45;8.25;;;;;;;;;;4934762;29;20126;-76
2022/09/23 04:28:19;;;;;;;12.63;6.97;;;;;;;;;;4934112;29;20036;-75
2022/09/23 04:30:46;;;;;;;10.13;6.32;;;;;;;;;;4930693;29;20028;-77
2022/09/23 04:33:13;;;;;;;11.18;7.03;;;;;;;;;;4940661;29;20032;-76
2022/09/23 04:35:44;;;;;;;12.27;7.35;;;;;;;;;;4940268;29;20095;-77
2022/09/23 04:38:11;;;;;;;15.38;7.60;;;;;;;;;;4921853;29;20094;-75
2022/09/23 04:40:37;;;;;;;11.75;6.35;;;;;;;;;;4934902;29;20513;-76
2022/09/23 04:43:03;;;;;;;12.18;7.05;;;;;;;;;;4933810;29;20127;-76
2022/09/23 04:45:29;;;;;;;11.00;7.13;;;;;;;;;;4934266;29;20035;-76
2022/09/23 04:47:57;;;;;;;11.63;7.45;;;;;;;;;;4925460;29;20031;-75
2022/09/23 04:50:24;;;;;;;12.75;7.25;;;;;;;;;;4931627;29;20035;-75
2022/09/23 04:52:50;;;;;;;15.73;9.35;;;;;;;;;;4931308;29;20031;-73
2022/09/23 04:55:17;;;;;;;15.57;8.70;;;;;;;;;;4933621;29;20015;-73
2022/09/23 04:57:43;;;;;;;13.07;8.20;;;;;;;;;;4933066;29;20027;-72
2022/09/23 05:00:11;;;;;;;14.48;7.28;;;;;;;;;;4939122;29;20151;-75
2022/09/23 05:02:47;;;;;;;12.98;8.20;;;;;;;;;;4943888;28;20102;-76
2022/09/23 05:05:19;;;;;;;12.32;7.50;;;;;;;;;;4953243;28;20019;-73
2022/09/23 05:07:47;;;;;;;11.98;7.15;;;;;;;;;;4954369;29;20126;-74
2022/09/23 05:10:15;;;;;;;12.88;7.85;;;;;;;;;;4958513;28;20134;-75
2022/09/23 05:12:41;;;;;;;13.50;7.50;;;;;;;;;;4942365;29;20031;-74
2022/09/23 05:15:07;;;;;;;12.80;9.18;;;;;;;;;;4952436;28;20019;-74
2022/09/23 05:17:35;;;;;;;13.48;8.13;;;;;;;;;;4952829;28;20106;-75
2022/09/23 05:20:01;;;;;;;15.43;8.45;;;;;;;;;;4953370;28;20102;-74
2022/09/23 05:22:29;;;;;;;15.70;7.43;;;;;;;;;;4932212;29;20381;-75
2022/09/23 05:24:55;;;;;;;16.67;8.70;;;;;;;;;;4951659;28;20067;-75
2022/09/23 05:27:21;;;;;;;11.38;8.00;;;;;;;;;;4952007;28;20031;-75
2022/09/23 05:29:48;;;;;;;11.05;8.23;;;;;;;;;;4953994;29;20020;-75
2022/09/23 05:32:14;;;;;;;11.40;6.60;;;;;;;;;;4952739;28;20428;-76
2022/09/23 05:34:40;;;;;;;11.55;6.30;;;;;;;;;;4952436;28;20035;-75
2022/09/23 05:37:09;;;;;;;12.00;6.25;;;;;;;;;;4935515;29;20031;-76
2022/09/23 05:39:36;;;;;;;10.95;5.55;;;;;;;;;;4957420;28;20454;-74
2022/09/23 05:42:05;;;;;;;8.98;5.72;;;;;;;;;;5229667;23;20050;-79
2022/09/23 05:44:32;;;;;;;14.73;5.47;;;;;;;;;;4963678;28;20023;-76
2022/09/23 05:47:05;;;;;;;9.60;5.40;;;;;;;;;;4993365;28;20034;-78
2022/09/23 05:50:05;;;;;;;7.75;4.20;;;;;;;;;;5084230;23;20050;-79
2022/09/23 05:52:33;;;;;;;7.32;4.55;;;;;;;;;;4971291;28;20027;-78
2022/09/23 05:55:00;;;;;;;9.20;4.75;;;;;;;;;;4960218;28;20031;-80
2022/09/23 05:57:26;;;;;;;8.48;5.50;;;;;;;;;;4960502;28;20094;-78
2022/09/23 05:59:53;;;;;;;7.53;5.72;;;;;;;;;;4959544;28;20536;-79
2022/09/23 06:02:19;;;;;;;13.02;5.75;;;;;;;;;;4965498;28;20038;-78
2022/09/23 06:04:45;;;;;;;13.55;5.03;;;;;;;;;;4955734;28;20408;-77
2022/09/23 06:07:11;;;;;;;11.00;5.38;;;;;;;;;;4978721;28;20408;-78
2022/09/23 06:10:11;;;;;;;8.07;5.43;;;;;;;;;;4987911;28;20027;-79
2022/09/23 06:12:51;;;;;;;9.15;5.68;;;;;;;;;;4957390;28;20035;-79
2022/09/23 06:15:21;;;;;;;10.70;5.78;;;;;;;;;;4927567;28;20038;-80
2022/09/23 06:17:51;;;;;;;7.88;4.82;;;;;;;;;;4981114;28;20182;-80
2022/09/23 06:20:20;;;;;;;6.55;5.50;;;;;;;;;;4974261;28;20039;-77
2022/09/23 06:22:46;;;;;;;7.07;4.72;;;;;;;;;;4971048;28;20105;-76
2022/09/23 06:25:12;;;;;;;10.27;5.18;;;;;;;;;;4950238;28;20045;-77
2022/09/23 06:27:38;;;;;;;8.02;5.00;;;;;;;;;;4949958;28;20039;-76
2022/09/23 06:30:06;;;;;;;5.97;4.60;;;;;;;;;;4962250;28;20074;-80
2022/09/23 06:32:48;;;;;;;6.95;4.97;;;;;;;;;;4971512;28;20022;-82
2022/09/23 06:35:43;;;;;;;10.82;5.38;;;;;;;;;;4964542;28;20019;-80
2022/09/23 06:38:48;;;;;;;;;;;;;;;;;;;;;
2022/09/23 06:42:01;;;;;;;11.82;6.05;;;;;;;;;;4902384;29;20107;-82
2022/09/23 06:44:49;;;;;;;7.60;5.35;;;;;;;;;;4880568;29;20090;-81
2022/09/23 06:47:18;;;;;;;11.45;5.70;;;;;;;;;;4869212;29;20054;-81
2022/09/23 06:49:47;;;;;;;8.27;5.50;;;;;;;;;;4864462;29;20049;-79
2022/09/23 06:52:20;;;;;;;22.73;13.75;;;;;;;;;;4862088;29;20021;-79
2022/09/23 06:54:47;;;;;;;10.77;7.53;;;;;;;;;;4861518;29;20517;-78
2022/09/23 06:57:13;;;;;;;12.63;8.85;;;;;;;;;;4857955;29;20033;-75
2022/09/23 06:59:42;;;;;;;12.65;7.93;;;;;;;;;;4850303;29;20037;-75
2022/09/23 07:02:09;;;;;;;8.63;7.03;;;;;;;;;;4864472;29;20046;-78
2022/09/23 07:04:35;;;;;;;6.53;5.93;;;;;;;;;;4866462;29;20068;-78
2022/09/23 07:07:01;;;;;;;8.93;6.93;;;;;;;;;;4863316;29;20209;-80
2022/09/23 07:09:27;;;;;;;11.57;6.47;;;;;;;;;;4849639;29;20037;-77
2022/09/23 07:11:54;;;;;;;10.20;5.95;;;;;;;;;;4858121;29;20519;-78
2022/09/23 07:14:20;;;;;;;10.20;7.05;;;;;;;;;;4856408;29;20041;-76
2022/09/23 07:16:49;;;;;;;11.82;6.68;;;;;;;;;;4853597;29;20038;-77
2022/09/23 07:19:16;;;;;;;8.45;6.15;;;;;;;;;;4862116;29;20108;-76
2022/09/23 07:21:42;;;;;;;10.18;6.88;;;;;;;;;;4905417;29;20059;-77
2022/09/23 07:24:08;;;;;;;7.75;6.00;;;;;;;;;;4913396;29;20397;-77
2022/09/23 07:26:34;;;;;;;7.57;6.07;;;;;;;;;;4910403;29;20469;-75
2022/09/23 07:29:04;;;;;;;8.07;6.03;;;;;;;;;;4907513;29;20039;-77
2022/09/23 07:31:50;;;;;;;6.95;6.25;;;;;;;;;;4903927;29;20048;-78
2022/09/23 07:34:16;;;;;;;10.65;7.18;;;;;;;;;;4914263;29;20079;-81
2022/09/23 07:36:44;;;;;;;10.23;7.05;;;;;;;;;;4925683;29;20541;-79
2022/09/23 08:23:58;;;;;;;9.77;7.93;;;;;;;;;;4910472;29;20785;-75
2022/09/23 08:26:24;;;;;;;13.45;8.10;;;;;;;;;;4916057;29;20044;-76
2022/09/23 08:28:52;;;;;;;10.27;7.68;;;;;;;;;;4897401;29;20052;-76
2022/09/23 08:31:20;;;;;;;12.68;7.95;;;;;;;;;;4906483;29;20084;-78
2022/09/23 08:33:46;;;;;;;10.32;7.68;;;;;;;;;;4916765;29;20060;-77
2022/09/23 08:36:28;;;;;;;10.30;7.90;;;;;;;;;;4937802;29;20044;-81
2022/09/23 08:39:04;;;;;;;12.40;8.10;;;;;;;;;;4902681;29;20040;-81
2022/09/23 08:41:51;;;;;;;11.27;7.22;;;;;;;;;;4910658;29;20046;-81
2022/09/23 08:44:25;;;;;;;9.43;7.10;;;;;;;;;;4830315;29;20042;-84
2022/09/23 08:47:03;;;;;;;9.93;7.20;;;;;;;;;;4831889;29;20054;-78
2022/09/23 08:49:40;;;;;;;11.93;6.80;;;;;;;;;;4832018;29;20031;-77
2022/09/23 08:52:08;;;;;;;12.75;7.00;;;;;;;;;;4837208;29;20194;-77
2022/09/23 08:54:56;;;;;;;21.73;10.85;;;;;;;;;;4840515;29;20073;-81
2022/09/23 08:57:49;;;;;;;12.68;7.50;;;;;;;;;;4835224;29;20055;-76
2022/09/23 09:00:23;;;;;;;14.25;8.70;;;;;;;;;;4771789;30;20035;-77
2022/09/23 09:02:49;;;;;;;29.67;17.27;;;;;;;;;;4769483;30;20048;-74
2022/09/23 09:05:19;;;;;;;151.80;90.93;;;;;;;;;;4766416;30;20058;-74
2022/09/23 09:07:45;;;;;;;16.52;11.85;;;;;;;;;;4767157;30;20127;-76
2022/09/23 09:10:11;;;;;;;10.75;9.02;;;;;;;;;;4773093;30;20044;-77
2022/09/23 09:12:50;;;;;;;13.73;9.52;;;;;;;;;;4768189;30;20044;-76
2022/09/23 09:15:20;;;;;;;11.52;8.80;;;;;;;;;;4769601;30;20562;-74
2022/09/23 09:18:00;;;;;;;101.35;59.50;;;;;;;;;;4777039;30;20430;-80
2022/09/23 09:20:38;;;;;;;29.95;21.27;;;;;;;;;;4777313;29;20042;-77
2022/09/23 09:23:23;;;;;;;10.73;8.50;;;;;;;;;;4827865;29;20054;-76
2022/09/23 09:25:51;;;;;;;15.32;12.75;;;;;;;;;;4815394;29;20056;-77
2022/09/23 09:28:23;;;;;;;10.55;7.50;;;;;;;;;;4829352;29;20042;-79
2022/09/23 09:31:15;;;;;;;12.50;7.65;;;;;;;;;;4830939;29;20186;-79
2022/09/23 09:33:47;;;;;;;12.40;7.38;;;;;;;;;;4811706;29;20046;-78
2022/09/23 09:36:22;;;;;;;19.17;11.48;;;;;;;;;;4849622;29;20030;-78
2022/09/23 09:38:52;;;;;;;13.23;9.23;;;;;;;;;;4916028;29;20303;-80
2022/09/23 09:41:23;;;;;;;9.20;6.68;;;;;;;;;;4911434;29;20029;-74
2022/09/23 09:43:56;;;;;;;10.15;6.57;;;;;;;;;;4915295;29;20032;-73
2022/09/23 09:46:25;;;;;;;12.13;8.73;;;;;;;;;;4914295;29;20144;-78
2022/09/23 09:48:55;;;;;;;16.25;10.93;;;;;;;;;;4911039;29;20008;-74
2022/09/23 09:51:24;;;;;;;14.98;9.75;;;;;;;;;;4909341;29;20053;-78
2022/09/23 09:53:51;;;;;;;12.05;9.18;;;;;;;;;;4918691;29;20069;-79
2022/09/23 09:56:19;;;;;;;12.10;7.45;;;;;;;;;;4922905;29;20028;-80
2022/09/23 09:58:48;;;;;;;10.07;7.55;;;;;;;;;;4921848;29;20037;-78
2022/09/23 10:01:23;;;;;;;10.10;6.18;;;;;;;;;;4922501;29;20048;-79
2022/09/23 10:03:51;;;;;;;12.32;6.22;;;;;;;;;;4907065;29;20033;-78
2022/09/23 10:06:19;;;;;;;14.07;10.27;;;;;;;;;;4938029;29;20088;-78
2022/09/23 10:09:03;;;;;;;12.05;8.63;;;;;;;;;;4927866;29;20051;-77
2022/09/23 10:11:29;;;;;;;;;;;;;;;;;;4926815;29;20040;-80
2022/09/23 10:14:11;;;;;;;12.32;7.03;;;;;;;;;;4927594;29;19911;-81
2022/09/23 10:16:38;;;;;;;42.53;25.85;;;;;;;;;;4924526;29;20044;-77
2022/09/23 10:19:25;;;;;;;13.32;10.07;;;;;;;;;;4922788;29;20040;-82
2022/09/23 10:21:59;;;;;;;12.80;7.40;;;;;;;;;;4922937;29;20094;-78
2022/09/23 10:24:28;;;;;;;19.13;15.10;;;;;;;;;;4924808;29;20052;-77
2022/09/23 10:27:00;;;;;;;13.90;10.77;;;;;;;;;;4926507;29;20044;-77
2022/09/23 10:29:31;;;;;;;9.57;6.95;;;;;;;;;;4930199;29;20036;-76
2022/09/23 10:32:16;;;;;;;7.65;5.35;;;;;;;;;;4909668;29;20020;-79
2022/09/23 10:34:43;;;;;;;12.68;6.13;;;;;;;;;;4924534;29;20073;-76
2022/09/23 10:37:22;;;;;;;7.93;5.70;;;;;;;;;;4924281;29;20035;-77
2022/09/23 10:48:30;;;;;;;8.80;5.43;;;;;;;;;;4926574;29;20053;-78
2022/09/23 10:50:58;;;;;;;8.65;5.65;;;;;;;;;;4926143;29;20033;-76
2022/09/23 10:53:43;;;;;;;9.57;5.13;;;;;;;;;;4900255;29;20041;-79
2022/09/23 10:56:19;;;;;;;8.02;4.65;;;;;;;;;;4925978;29;20037;-76
2022/09/23 10:59:03;;;;;;;16.13;10.02;;;;;;;;;;4922262;29;20037;-76
2022/09/23 11:01:46;;;;;;;12.07;9.65;;;;;;;;;;4923899;29;20037;-77
2022/09/23 11:04:16;;;;;;;10.82;7.30;;;;;;;;;;4924122;29;20031;-77
2022/09/23 11:07:01;;;;;;;10.15;6.80;;;;;;;;;;4923541;29;20108;-77
2022/09/23 11:09:28;;;;;;;11.98;5.35;;;;;;;;;;4935170;29;20024;-77
2022/09/23 11:11:54;;;;;;;7.35;3.75;;;;;;;;;;4926816;29;20024;-81
2022/09/23 11:14:23;;;;;;;6.30;4.25;;;;;;;;;;4926449;29;20048;-76
2022/09/23 11:17:13;;;;;;;6.50;3.80;;;;;;;;;;4921669;29;20040;-77
2022/09/23 11:19:59;;;;;;;20.23;7.95;;;;;;;;;;4925138;29;20094;-77
2022/09/23 11:22:51;;;;;;;6.43;4.28;;;;;;;;;;4922674;29;20060;-76
2022/09/23 11:25:18;;;;;;;9.95;5.05;;;;;;;;;;4926009;29;20024;-79
2022/09/23 11:28:16;;;;;;;8.40;4.28;;;;;;;;;;4923807;29;20052;-78
2022/09/23 11:30:52;;;;;;;7.68;4.18;;;;;;;;;;4866138;29;20707;-78
2022/09/23 11:33:21;;;;;;;10.55;4.78;;;;;;;;;;4865175;29;20038;-77
2022/09/23 11:35:50;;;;;;;7.28;4.40;;;;;;;;;;4860682;29;20045;-80
2022/09/23 11:38:17;;;;;;;9.38;4.93;;;;;;;;;;4859415;29;20046;-78
2022/09/23 11:40:45;;;;;;;5.20;3.60;;;;;;;;;;4846623;29;20041;-76
2022/09/23 11:43:35;;;;;;;6.63;4.57;;;;;;;;;;4847915;29;20146;-79
2022/09/23 11:46:10;;;;;;;10.13;5.95;;;;;;;;;;4861207;29;20070;-79
2022/09/23 11:48:41;;;;;;;14.73;9.18;;;;;;;;;;4860641;29;20045;-76
2022/09/23 11:51:20;;;;;;;10.98;8.90;;;;;;;;;;4862324;29;20042;-80
2022/09/23 11:53:49;;;;;;;9.35;6.07;;;;;;;;;;4856385;29;20098;-76
2022/09/23 11:56:22;;;;;;;10.02;5.20;;;;;;;;;;4865028;29;20037;-77
2022/09/23 11:59:11;;;;;;;8.80;4.45;;;;;;;;;;4862357;29;20052;-76
2022/09/23 12:01:50;;;;;;;7.20;4.80;;;;;;;;;;4860367;29;20042;-78
2022/09/23 12:04:24;;;;;;;8.80;4.88;;;;;;;;;;4862166;29;20022;-77
2022/09/23 12:06:54;;;;;;;5.50;4.25;;;;;;;;;;4871849;29;20494;-76
2022/09/23 12:09:51;;;;;;;8.40;4.55;;;;;;;;;;4920003;29;20048;-78
2022/09/23 12:12:31;;;;;;;6.32;4.55;;;;;;;;;;4818999;29;20134;-76
2022/09/23 12:15:12;;;;;;;12.40;4.53;;;;;;;;;;4834213;29;20073;-76
2022/09/23 12:17:51;;;;;;;8.57;4.35;;;;;;;;;;4828602;29;20049;-75
2022/09/23 12:20:27;;;;;;;5.07;3.67;;;;;;;;;;4812256;29;20049;-78
2022/09/23 12:23:12;;;;;;;6.32;4.55;;;;;;;;;;4824027;29;20034;-78
2022/09/23 12:25:52;;;;;;;5.25;3.33;;;;;;;;;;4822907;29;20042;-78
2022/09/23 12:28:30;;;;;;;31.77;17.67;;;;;;;;;;4810335;29;20145;-77
2022/09/23 12:31:01;;;;;;;9.32;5.22;;;;;;;;;;4831956;29;20046;-77
2022/09/23 12:33:34;;;;;;;5.95;3.60;;;;;;;;;;4830511;29;20045;-78
2022/09/23 12:36:11;;;;;;;6.95;3.20;;;;;;;;;;4819041;29;20045;-78
2022/09/23 12:38:50;;;;;;;7.13;3.53;;;;;;;;;;4831803;29;20099;-79
2022/09/23 12:41:23;;;;;;;34.60;19.52;;;;;;;;;;4838143;29;20050;-78
2022/09/23 12:43:55;;;;;;;7.60;4.00;;;;;;;;;;4819556;29;20038;-74
2022/09/23 12:46:26;;;;;;;6.13;4.20;;;;;;;;;;4813197;29;20169;-77
2022/09/23 12:48:59;;;;;;;5.03;3.25;;;;;;;;;;4877118;29;20039;-78
2022/09/23 12:51:27;;;;;;;6.87;3.83;;;;;;;;;;4906653;29;20126;-76
2022/09/23 12:53:56;;;;;;;8.13;5.88;;;;;;;;;;4912794;29;20119;-75
2022/09/23 12:56:22;;;;;;;7.10;4.20;;;;;;;;;;4903088;29;20041;-72
2022/09/23 12:58:48;;;;;;;4.80;3.22;;;;;;;;;;4900953;29;20032;-73
2022/09/23 13:01:26;;;;;;;8.82;4.85;;;;;;;;;;4914345;29;20069;-78
2022/09/23 13:06:41;;;;;;;7.93;3.70;;;;;;;;;;4907000;29;20056;-79
2022/09/23 13:09:14;;;;;;;7.15;3.30;;;;;;;;;;4896383;29;20411;-74
2022/09/23 13:11:42;;;;;;;4.00;3.10;;;;;;;;;;4915413;29;20068;-74
2022/09/23 13:14:12;;;;;;;5.03;2.97;;;;;;;;;;4912963;29;20012;-74
2022/09/23 13:16:59;;;;;;;3.78;2.90;;;;;;;;;;4911684;29;20056;-73
2022/09/23 13:19:48;;;;;;;6.63;2.90;;;;;;;;;;4919217;29;20052;-82
2022/09/23 13:22:35;;;;;;;5.38;3.30;;;;;;;;;;4859697;29;20049;-76
2022/09/23 13:25:02;;;;;;;3.53;2.70;;;;;;;;;;4836835;29;20042;-73
2022/09/23 13:27:33;;;;;;;6.38;4.20;;;;;;;;;;4841623;29;20046;-78
2022/09/23 13:30:22;;;;;;;5.50;2.83;;;;;;;;;;4840262;29;20034;-72
2022/09/23 13:33:08;;;;;;;3.03;2.40;;;;;;;;;;4839698;29;20033;-74
2022/09/23 13:36:08;;;;;;;;;;;;;;;;;;;;;
2022/09/23 13:38:26;;;;;;;3.70;2.83;;;;;;;;;;4853406;29;20026;-79
2022/09/23 13:41:13;;;;;;;6.63;2.92;;;;;;;;;;4855448;29;20041;-82
2022/09/23 13:43:59;;;;;;;4.85;2.95;;;;;;;;;;4872153;29;20042;-78
2022/09/23 13:46:45;;;;;;;5.00;2.58;;;;;;;;;;4861372;29;20071;-78
2022/09/23 13:49:31;;;;;;;4.10;2.90;;;;;;;;;;4856951;29;20038;-80
2022/09/23 13:52:03;;;;;;;4.05;2.67;;;;;;;;;;4858110;29;20062;-79
2022/09/23 13:54:48;;;;;;;5.57;3.22;;;;;;;;;;4849528;29;20158;-76
2022/09/23 13:57:41;;;;;;;3.75;2.88;;;;;;;;;;4846939;29;20049;-74
2022/09/23 14:00:14;;;;;;;4.38;2.83;;;;;;;;;;4886608;29;20037;-78
2022/09/23 14:02:56;;;;;;;4.88;3.00;;;;;;;;;;4903231;29;20041;-80
2022/09/23 14:05:29;;;;;;;4.43;3.00;;;;;;;;;;4913082;29;20021;-80
2022/09/23 14:08:03;;;;;;;3.97;3.25;;;;;;;;;;4906067;29;20447;-81
2022/09/23 14:10:44;;;;;;;4.55;3.20;;;;;;;;;;4918222;29;20031;-82
2022/09/23 14:16:07;;;;;;;6.35;3.28;;;;;;;;;;4914152;26;20267;-78
2022/09/23 14:21:33;;;;;;;4.85;3.10;;;;;;;;;;5422992;23;20058;-78
2022/09/23 14:24:10;;;;;;;6.30;3.40;;;;;;;;;;4971522;28;20106;-74
2022/09/23 14:26:37;;;;;;;6.32;3.30;;;;;;;;;;4971974;29;20047;-74
2022/09/23 14:29:04;;;;;;;5.93;3.25;;;;;;;;;;4972893;28;20027;-74
2022/09/23 14:31:31;;;;;;;6.03;3.10;;;;;;;;;;4975357;28;20019;-79
2022/09/23 14:33:57;;;;;;;5.28;2.63;;;;;;;;;;4968850;29;20108;-77
2022/09/23 14:39:09;;;;;;;5.38;3.70;;;;;;;;;;4973898;28;20057;-74
2022/09/23 14:41:37;;;;;;;6.50;3.63;;;;;;;;;;4967573;29;20063;-75
2022/09/23 14:44:04;;;;;;;5.78;3.28;;;;;;;;;;4975929;28;20035;-74
2022/09/23 14:46:33;;;;;;;6.10;3.30;;;;;;;;;;4983462;28;20031;-73
2022/09/23 14:49:02;;;;;;;6.50;3.80;;;;;;;;;;4993027;28;20039;-76
2022/09/23 14:51:31;;;;;;;8.20;3.95;;;;;;;;;;4980121;28;20027;-76
2022/09/23 14:54:17;;;;;;;149.90;97.63;;;;;;;;;;4994871;28;20047;-75
2022/09/23 14:56:43;;;;;;;28.38;18.67;;;;;;;;;;4973557;28;20028;-73
2022/09/23 14:59:22;;;;;;;8.18;4.57;;;;;;;;;;4971313;29;20039;-73
2022/09/23 15:01:48;;;;;;;11.65;5.18;;;;;;;;;;4969541;29;20070;-73
2022/09/23 15:04:16;;;;;;;17.23;8.85;;;;;;;;;;4983178;28;20027;-74
2022/09/23 15:06:45;;;;;;;17.65;11.25;;;;;;;;;;4979309;28;20031;-73
2022/09/23 15:09:18;;;;;;;11.70;5.68;;;;;;;;;;4975879;29;20047;-73
2022/09/23 15:11:45;;;;;;;6.93;4.68;;;;;;;;;;4970635;29;20844;-74
2022/09/23 15:14:11;;;;;;;6.72;5.38;;;;;;;;;;4972520;29;20043;-73
2022/09/23 15:16:43;;;;;;;9.27;5.10;;;;;;;;;;4976695;29;20034;-80
2022/09/23 15:19:20;;;;;;;8.40;4.63;;;;;;;;;;4976505;28;20031;-77
2022/09/23 15:21:51;;;;;;;5.95;3.60;;;;;;;;;;4973587;28;20082;-79
2022/09/23 15:24:58;;;;;;;7.30;4.22;;;;;;;;;;4977087;28;20045;-81
2022/09/23 15:36:02;;;;;;;7.65;5.50;;;;;;;;;;5013543;23;20049;-78
2022/09/23 15:38:32;;;;;;;8.00;6.10;;;;;;;;;;4981914;28;20042;-76
2022/09/23 15:40:58;;;;;;;10.82;5.97;;;;;;;;;;4972038;28;20110;-75
2022/09/23 15:43:26;;;;;;;8.18;6.43;;;;;;;;;;4970081;28;20515;-73
2022/09/23 15:45:52;;;;;;;9.75;5.88;;;;;;;;;;4988386;28;20054;-76
2022/09/23 15:48:23;;;;;;;8.13;5.88;;;;;;;;;;4973477;28;20093;-76
2022/09/23 15:50:50;;;;;;;10.60;4.97;;;;;;;;;;4982789;28;20113;-79
2022/09/23 15:53:18;;;;;;;8.13;5.10;;;;;;;;;;4978669;28;20035;-79
2022/09/23 15:55:45;;;;;;;28.23;14.98;;;;;;;;;;4984371;28;20075;-77
2022/09/23 15:58:11;;;;;;;11.27;6.45;;;;;;;;;;4979091;28;20027;-79
2022/09/23 16:00:37;;;;;;;16.23;5.93;;;;;;;;;;4996978;28;20438;-76
2022/09/23 16:03:04;;;;;;;5.88;4.50;;;;;;;;;;4987841;28;20055;-81
2022/09/23 16:05:34;;;;;;;11.68;5.25;;;;;;;;;;4986449;28;20046;-81
2022/09/23 16:08:01;;;;;;;8.13;5.18;;;;;;;;;;4995318;28;20034;-79
2022/09/23 16:10:27;;;;;;;7.10;4.57;;;;;;;;;;4996534;28;20021;-80
2022/09/23 16:12:54;;;;;;;7.45;5.10;;;;;;;;;;4986386;28;20024;-73
2022/09/23 16:15:21;;;;;;;10.25;4.38;;;;;;;;;;4990455;28;20038;-78
2022/09/23 16:17:47;;;;;;;10.23;4.78;;;;;;;;;;4995352;28;20022;-81
2022/09/23 16:20:17;;;;;;;12.73;6.00;;;;;;;;;;4996541;28;20019;-82
2022/09/23 16:22:50;;;;;;;13.38;5.75;;;;;;;;;;4991422;28;20045;-73
2022/09/23 16:25:17;;;;;;;20.75;5.93;;;;;;;;;;4980056;28;20027;-80
2022/09/23 16:27:43;;;;;;;12.98;5.75;;;;;;;;;;4980709;28;20050;-75